sensor_id;sensor_type;location;lat;lon;timestamp;P1;durP1;ratioP1;P2;durP2;ratioP2
15049;SDS011;7622;42.724;23.250;2023-02-28T00:00:16;20.77;;;13.50;;
15049;SDS011;7622;42.724;23.250;2023-02-28T00:02:43;18.47;;;12.40;;
15049;SDS011;7622;42.724;23.250;2023-02-28T00:05:12;20.43;;;12.53;;
15049;SDS011;7622;42.724;23.250;2023-02-28T00:07:40;19.07;;;12.00;;
15049;SDS011;7622;42.724;23.250;2023-02-28T00:10:08;18.97;;;11.87;;
15049;SDS011;7622;42.724;23.250;2023-02-28T00:12:37;18.53;;;12.00;;
15049;SDS011;7622;42.724;23.250;2023-02-28T00:15:05;20.93;;;13.47;;
15049;SDS011;7622;42.724;23.250;2023-02-28T00:17:33;18.67;;;12.60;;
15049;SDS011;7622;42.724;23.250;2023-02-28T00:20:00;21.43;;;12.80;;
15049;SDS011;7622;42.724;23.250;2023-02-28T00:22:37;19.00;;;11.70;;
15049;SDS011;7622;42.724;23.250;2023-02-28T00:25:05;18.77;;;12.20;;
15049;SDS011;7622;42.724;23.250;2023-02-28T00:27:33;20.03;;;12.10;;
15049;SDS011;7622;42.724;23.250;2023-02-28T00:30:02;20.93;;;12.53;;
15049;SDS011;7622;42.724;23.250;2023-02-28T00:32:30;16.17;;;10.93;;
15049;SDS011;7622;42.724;23.250;2023-02-28T00:34:56;17.27;;;10.90;;
15049;SDS011;7622;42.724;23.250;2023-02-28T00:37:23;15.27;;;10.33;;
15049;SDS011;7622;42.724;23.250;2023-02-28T00:39:50;15.13;;;10.00;;
15049;SDS011;7622;42.724;23.250;2023-02-28T00:42:17;16.77;;;10.17;;
15049;SDS011;7622;42.724;23.250;2023-02-28T00:44:44;16.03;;;10.80;;
15049;SDS011;7622;42.724;23.250;2023-02-28T00:47:12;14.87;;;9.83;;
15049;SDS011;7622;42.724;23.250;2023-02-28T00:49:39;18.17;;;10.33;;
15049;SDS011;7622;42.724;23.250;2023-02-28T00:52:06;17.07;;;11.23;;
15049;SDS011;7622;42.724;23.250;2023-02-28T00:54:33;16.07;;;10.33;;
15049;SDS011;7622;42.724;23.250;2023-02-28T00:57:00;16.10;;;11.07;;
15049;SDS011;7622;42.724;23.250;2023-02-28T00:59:26;16.67;;;11.37;;
15049;SDS011;7622;42.724;23.250;2023-02-28T01:01:53;20.10;;;13.13;;
15049;SDS011;7622;42.724;23.250;2023-02-28T01:04:24;18.97;;;11.77;;
15049;SDS011;7622;42.724;23.250;2023-02-28T01:06:50;18.43;;;11.20;;
15049;SDS011;7622;42.724;23.250;2023-02-28T01:09:17;20.57;;;12.40;;
15049;SDS011;7622;42.724;23.250;2023-02-28T01:11:44;23.77;;;13.07;;
15049;SDS011;7622;42.724;23.250;2023-02-28T01:14:12;22.70;;;12.57;;
15049;SDS011;7622;42.724;23.250;2023-02-28T01:16:39;22.10;;;11.93;;
15049;SDS011;7622;42.724;23.250;2023-02-28T01:19:07;20.47;;;12.23;;
15049;SDS011;7622;42.724;23.250;2023-02-28T01:21:35;19.83;;;12.20;;
15049;SDS011;7622;42.724;23.250;2023-02-28T01:24:02;18.63;;;12.53;;
15049;SDS011;7622;42.724;23.250;2023-02-28T01:26:29;21.07;;;13.70;;
15049;SDS011;7622;42.724;23.250;2023-02-28T01:28:57;19.83;;;12.57;;
15049;SDS011;7622;42.724;23.250;2023-02-28T01:31:24;19.43;;;12.50;;
15049;SDS011;7622;42.724;23.250;2023-02-28T01:33:51;20.63;;;12.53;;
15049;SDS011;7622;42.724;23.250;2023-02-28T01:36:18;17.53;;;11.37;;
15049;SDS011;7622;42.724;23.250;2023-02-28T01:38:48;21.73;;;12.00;;
15049;SDS011;7622;42.724;23.250;2023-02-28T01:41:16;17.80;;;11.60;;
15049;SDS011;7622;42.724;23.250;2023-02-28T01:46:50;18.37;;;11.20;;
15049;SDS011;7622;42.724;23.250;2023-02-28T01:49:16;18.10;;;10.63;;
15049;SDS011;7622;42.724;23.250;2023-02-28T01:51:45;20.40;;;11.73;;
15049;SDS011;7622;42.724;23.250;2023-02-28T01:54:18;17.07;;;11.30;;
15049;SDS011;7622;42.724;23.250;2023-02-28T01:56:49;17.93;;;11.17;;
15049;SDS011;7622;42.724;23.250;2023-02-28T01:59:21;19.73;;;11.60;;
15049;SDS011;7622;42.724;23.250;2023-02-28T02:01:53;16.17;;;11.37;;
15049;SDS011;7622;42.724;23.250;2023-02-28T02:04:21;18.23;;;11.33;;
15049;SDS011;7622;42.724;23.250;2023-02-28T02:06:52;14.20;;;10.07;;
15049;SDS011;7622;42.724;23.250;2023-02-28T02:09:20;20.30;;;12.50;;
15049;SDS011;7622;42.724;23.250;2023-02-28T02:11:48;17.57;;;11.27;;
15049;SDS011;7622;42.724;23.250;2023-02-28T02:14:28;19.93;;;11.33;;
15049;SDS011;7622;42.724;23.250;2023-02-28T02:17:06;20.97;;;11.57;;
15049;SDS011;7622;42.724;23.250;2023-02-28T02:19:46;16.93;;;10.67;;
15049;SDS011;7622;42.724;23.250;2023-02-28T02:25:49;20.87;;;11.93;;
15049;SDS011;7622;42.724;23.250;2023-02-28T02:28:30;19.13;;;11.80;;
15049;SDS011;7622;42.724;23.250;2023-02-28T02:31:18;22.70;;;12.23;;
15049;SDS011;7622;42.724;23.250;2023-02-28T02:34:03;22.97;;;12.30;;
15049;SDS011;7622;42.724;23.250;2023-02-28T02:36:44;20.27;;;12.03;;
15049;SDS011;7622;42.724;23.250;2023-02-28T02:39:17;25.03;;;14.23;;
15049;SDS011;7622;42.724;23.250;2023-02-28T02:41:54;29.87;;;15.03;;
15049;SDS011;7622;42.724;23.250;2023-02-28T02:44:26;25.03;;;14.27;;
15049;SDS011;7622;42.724;23.250;2023-02-28T02:46:58;24.00;;;14.67;;
15049;SDS011;7622;42.724;23.250;2023-02-28T02:49:32;27.13;;;14.33;;
15049;SDS011;7622;42.724;23.250;2023-02-28T02:52:03;24.63;;;13.23;;
15049;SDS011;7622;42.724;23.250;2023-02-28T02:54:33;26.33;;;13.67;;
15049;SDS011;7622;42.724;23.250;2023-02-28T02:57:04;18.83;;;11.97;;
15049;SDS011;7622;42.724;23.250;2023-02-28T02:59:34;25.33;;;13.73;;
15049;SDS011;7622;42.724;23.250;2023-02-28T03:02:04;24.00;;;13.17;;
15049;SDS011;7622;42.724;23.250;2023-02-28T03:04:38;25.10;;;14.57;;
15049;SDS011;7622;42.724;23.250;2023-02-28T03:07:08;27.23;;;14.30;;
15049;SDS011;7622;42.724;23.250;2023-02-28T03:09:35;27.57;;;13.33;;
15049;SDS011;7622;42.724;23.250;2023-02-28T03:12:02;25.80;;;14.10;;
15049;SDS011;7622;42.724;23.250;2023-02-28T03:14:36;21.70;;;12.90;;
15049;SDS011;7622;42.724;23.250;2023-02-28T03:17:21;24.97;;;13.50;;
15049;SDS011;7622;42.724;23.250;2023-02-28T03:20:03;27.13;;;13.93;;
15049;SDS011;7622;42.724;23.250;2023-02-28T03:22:40;30.67;;;14.17;;
15049;SDS011;7622;42.724;23.250;2023-02-28T03:25:16;27.50;;;12.40;;
15049;SDS011;7622;42.724;23.250;2023-02-28T03:27:49;29.43;;;13.10;;
15049;SDS011;7622;42.724;23.250;2023-02-28T03:30:22;33.23;;;13.67;;
15049;SDS011;7622;42.724;23.250;2023-02-28T03:32:54;23.40;;;12.07;;
15049;SDS011;7622;42.724;23.250;2023-02-28T03:35:28;28.27;;;13.00;;
15049;SDS011;7622;42.724;23.250;2023-02-28T03:38:00;23.53;;;13.53;;
15049;SDS011;7622;42.724;23.250;2023-02-28T03:40:32;24.77;;;11.90;;
15049;SDS011;7622;42.724;23.250;2023-02-28T03:43:03;22.00;;;13.00;;
15049;SDS011;7622;42.724;23.250;2023-02-28T03:45:37;33.00;;;13.97;;
15049;SDS011;7622;42.724;23.250;2023-02-28T03:48:09;23.43;;;13.27;;
15049;SDS011;7622;42.724;23.250;2023-02-28T03:50:43;25.60;;;13.67;;
15049;SDS011;7622;42.724;23.250;2023-02-28T03:53:14;29.83;;;13.57;;
15049;SDS011;7622;42.724;23.250;2023-02-28T03:55:47;27.60;;;14.17;;
15049;SDS011;7622;42.724;23.250;2023-02-28T03:58:19;31.43;;;14.70;;
15049;SDS011;7622;42.724;23.250;2023-02-28T04:00:52;32.53;;;14.90;;
15049;SDS011;7622;42.724;23.250;2023-02-28T04:03:23;26.07;;;14.50;;
15049;SDS011;7622;42.724;23.250;2023-02-28T04:05:52;27.73;;;15.33;;
15049;SDS011;7622;42.724;23.250;2023-02-28T04:08:21;30.03;;;14.67;;
15049;SDS011;7622;42.724;23.250;2023-02-28T04:10:50;28.97;;;15.17;;
15049;SDS011;7622;42.724;23.250;2023-02-28T04:13:24;29.10;;;15.17;;
15049;SDS011;7622;42.724;23.250;2023-02-28T04:15:50;32.40;;;16.07;;
15049;SDS011;7622;42.724;23.250;2023-02-28T04:18:17;33.10;;;16.00;;
15049;SDS011;7622;42.724;23.250;2023-02-28T04:20:44;36.67;;;16.83;;
15049;SDS011;7622;42.724;23.250;2023-02-28T04:23:12;35.23;;;18.37;;
15049;SDS011;7622;42.724;23.250;2023-02-28T04:25:39;28.47;;;15.63;;
15049;SDS011;7622;42.724;23.250;2023-02-28T04:28:06;31.40;;;16.47;;
15049;SDS011;7622;42.724;23.250;2023-02-28T04:30:33;27.47;;;14.83;;
15049;SDS011;7622;42.724;23.250;2023-02-28T04:33:00;32.83;;;16.17;;
15049;SDS011;7622;42.724;23.250;2023-02-28T04:35:26;31.20;;;17.57;;
15049;SDS011;7622;42.724;23.250;2023-02-28T04:37:53;29.00;;;16.60;;
15049;SDS011;7622;42.724;23.250;2023-02-28T04:40:21;29.43;;;16.60;;
15049;SDS011;7622;42.724;23.250;2023-02-28T04:42:48;33.60;;;17.37;;
15049;SDS011;7622;42.724;23.250;2023-02-28T04:45:15;28.93;;;15.03;;
15049;SDS011;7622;42.724;23.250;2023-02-28T04:47:42;27.10;;;14.63;;
15049;SDS011;7622;42.724;23.250;2023-02-28T04:50:09;30.00;;;15.13;;
15049;SDS011;7622;42.724;23.250;2023-02-28T04:52:36;29.70;;;15.40;;
15049;SDS011;7622;42.724;23.250;2023-02-28T04:55:03;22.53;;;13.53;;
15049;SDS011;7622;42.724;23.250;2023-02-28T04:57:32;27.30;;;14.23;;
15049;SDS011;7622;42.724;23.250;2023-02-28T04:59:59;23.10;;;13.17;;
15049;SDS011;7622;42.724;23.250;2023-02-28T05:02:26;23.67;;;12.57;;
15049;SDS011;7622;42.724;23.250;2023-02-28T05:04:52;23.00;;;13.67;;
15049;SDS011;7622;42.724;23.250;2023-02-28T05:07:19;23.37;;;12.27;;
15049;SDS011;7622;42.724;23.250;2023-02-28T05:09:46;22.10;;;12.80;;
15049;SDS011;7622;42.724;23.250;2023-02-28T05:12:13;21.37;;;13.57;;
15049;SDS011;7622;42.724;23.250;2023-02-28T05:14:41;25.57;;;13.00;;
15049;SDS011;7622;42.724;23.250;2023-02-28T05:17:09;21.37;;;13.20;;
15049;SDS011;7622;42.724;23.250;2023-02-28T05:19:36;26.10;;;12.77;;
15049;SDS011;7622;42.724;23.250;2023-02-28T05:22:03;21.50;;;12.70;;
15049;SDS011;7622;42.724;23.250;2023-02-28T05:24:29;21.00;;;12.20;;
15049;SDS011;7622;42.724;23.250;2023-02-28T05:26:56;23.30;;;12.77;;
15049;SDS011;7622;42.724;23.250;2023-02-28T05:29:23;23.47;;;13.13;;
15049;SDS011;7622;42.724;23.250;2023-02-28T05:31:51;27.20;;;13.90;;
15049;SDS011;7622;42.724;23.250;2023-02-28T05:34:18;28.57;;;14.93;;
15049;SDS011;7622;42.724;23.250;2023-02-28T05:36:45;23.30;;;13.13;;
15049;SDS011;7622;42.724;23.250;2023-02-28T05:39:11;24.37;;;14.17;;
15049;SDS011;7622;42.724;23.250;2023-02-28T05:41:39;27.40;;;13.30;;
15049;SDS011;7622;42.724;23.250;2023-02-28T05:44:06;27.13;;;13.70;;
15049;SDS011;7622;42.724;23.250;2023-02-28T05:46:34;23.87;;;13.40;;
15049;SDS011;7622;42.724;23.250;2023-02-28T05:49:03;23.23;;;14.03;;
15049;SDS011;7622;42.724;23.250;2023-02-28T05:51:30;20.50;;;13.43;;
15049;SDS011;7622;42.724;23.250;2023-02-28T05:54:00;24.53;;;13.50;;
15049;SDS011;7622;42.724;23.250;2023-02-28T05:56:27;24.27;;;13.77;;
15049;SDS011;7622;42.724;23.250;2023-02-28T05:58:54;27.17;;;13.63;;
15049;SDS011;7622;42.724;23.250;2023-02-28T06:01:24;32.17;;;14.97;;
15049;SDS011;7622;42.724;23.250;2023-02-28T06:03:57;32.13;;;15.20;;
15049;SDS011;7622;42.724;23.250;2023-02-28T06:06:26;30.43;;;16.87;;
15049;SDS011;7622;42.724;23.250;2023-02-28T06:08:53;31.57;;;16.47;;
15049;SDS011;7622;42.724;23.250;2023-02-28T06:11:19;30.63;;;16.43;;
15049;SDS011;7622;42.724;23.250;2023-02-28T06:13:46;31.80;;;15.73;;
15049;SDS011;7622;42.724;23.250;2023-02-28T06:16:13;31.13;;;15.87;;
15049;SDS011;7622;42.724;23.250;2023-02-28T06:18:40;29.50;;;15.60;;
15049;SDS011;7622;42.724;23.250;2023-02-28T06:21:07;32.10;;;16.57;;
15049;SDS011;7622;42.724;23.250;2023-02-28T06:23:35;35.63;;;18.10;;
15049;SDS011;7622;42.724;23.250;2023-02-28T06:26:02;35.83;;;19.47;;
15049;SDS011;7622;42.724;23.250;2023-02-28T06:28:29;39.50;;;19.80;;
15049;SDS011;7622;42.724;23.250;2023-02-28T06:30:56;38.53;;;20.93;;
15049;SDS011;7622;42.724;23.250;2023-02-28T06:33:22;45.63;;;22.37;;
15049;SDS011;7622;42.724;23.250;2023-02-28T06:35:50;44.97;;;21.00;;
15049;SDS011;7622;42.724;23.250;2023-02-28T06:38:17;43.03;;;19.97;;
15049;SDS011;7622;42.724;23.250;2023-02-28T06:40:54;44.30;;;20.77;;
15049;SDS011;7622;42.724;23.250;2023-02-28T06:43:24;40.87;;;20.07;;
15049;SDS011;7622;42.724;23.250;2023-02-28T06:45:53;39.30;;;21.20;;
15049;SDS011;7622;42.724;23.250;2023-02-28T06:48:20;45.97;;;21.90;;
15049;SDS011;7622;42.724;23.250;2023-02-28T06:50:47;37.63;;;20.03;;
15049;SDS011;7622;42.724;23.250;2023-02-28T06:53:14;43.90;;;21.60;;
15049;SDS011;7622;42.724;23.250;2023-02-28T06:55:41;43.60;;;21.97;;
15049;SDS011;7622;42.724;23.250;2023-02-28T06:58:09;45.43;;;22.30;;
15049;SDS011;7622;42.724;23.250;2023-02-28T07:00:44;42.70;;;20.67;;
15049;SDS011;7622;42.724;23.250;2023-02-28T07:03:12;38.67;;;20.20;;
15049;SDS011;7622;42.724;23.250;2023-02-28T07:05:42;41.30;;;21.37;;
15049;SDS011;7622;42.724;23.250;2023-02-28T07:08:09;45.63;;;21.97;;
15049;SDS011;7622;42.724;23.250;2023-02-28T07:10:36;46.33;;;21.83;;
15049;SDS011;7622;42.724;23.250;2023-02-28T07:13:04;46.20;;;21.93;;
15049;SDS011;7622;42.724;23.250;2023-02-28T07:15:32;44.33;;;21.53;;
15049;SDS011;7622;42.724;23.250;2023-02-28T07:17:59;39.60;;;22.07;;
15049;SDS011;7622;42.724;23.250;2023-02-28T07:20:26;45.90;;;22.30;;
15049;SDS011;7622;42.724;23.250;2023-02-28T07:22:53;49.47;;;25.40;;
15049;SDS011;7622;42.724;23.250;2023-02-28T07:25:21;50.20;;;23.70;;
15049;SDS011;7622;42.724;23.250;2023-02-28T07:27:48;53.47;;;24.97;;
15049;SDS011;7622;42.724;23.250;2023-02-28T07:30:15;55.70;;;24.73;;
15049;SDS011;7622;42.724;23.250;2023-02-28T07:32:44;52.40;;;25.10;;
15049;SDS011;7622;42.724;23.250;2023-02-28T07:35:11;61.07;;;26.43;;
15049;SDS011;7622;42.724;23.250;2023-02-28T07:37:38;51.57;;;25.13;;
15049;SDS011;7622;42.724;23.250;2023-02-28T07:40:07;47.67;;;24.53;;
15049;SDS011;7622;42.724;23.250;2023-02-28T07:42:37;61.80;;;26.80;;
15049;SDS011;7622;42.724;23.250;2023-02-28T07:45:05;66.27;;;28.87;;
15049;SDS011;7622;42.724;23.250;2023-02-28T07:47:32;65.40;;;31.37;;
15049;SDS011;7622;42.724;23.250;2023-02-28T07:50:00;56.17;;;28.33;;
15049;SDS011;7622;42.724;23.250;2023-02-28T07:52:27;55.93;;;27.47;;
15049;SDS011;7622;42.724;23.250;2023-02-28T07:54:54;52.67;;;25.83;;
15049;SDS011;7622;42.724;23.250;2023-02-28T07:57:21;47.80;;;24.43;;
15049;SDS011;7622;42.724;23.250;2023-02-28T07:59:47;48.57;;;24.57;;
15049;SDS011;7622;42.724;23.250;2023-02-28T08:02:14;43.70;;;23.30;;
15049;SDS011;7622;42.724;23.250;2023-02-28T08:04:42;44.40;;;24.20;;
15049;SDS011;7622;42.724;23.250;2023-02-28T08:07:11;45.97;;;23.53;;
15049;SDS011;7622;42.724;23.250;2023-02-28T08:09:39;44.47;;;24.07;;
15049;SDS011;7622;42.724;23.250;2023-02-28T08:12:07;49.07;;;23.53;;
15049;SDS011;7622;42.724;23.250;2023-02-28T08:14:34;48.33;;;24.20;;
15049;SDS011;7622;42.724;23.250;2023-02-28T08:17:01;44.93;;;24.57;;
15049;SDS011;7622;42.724;23.250;2023-02-28T08:19:28;53.90;;;23.97;;
15049;SDS011;7622;42.724;23.250;2023-02-28T08:21:55;52.63;;;25.83;;
15049;SDS011;7622;42.724;23.250;2023-02-28T08:24:23;46.60;;;23.23;;
15049;SDS011;7622;42.724;23.250;2023-02-28T08:26:50;42.33;;;22.00;;
15049;SDS011;7622;42.724;23.250;2023-02-28T08:29:17;44.43;;;22.00;;
15049;SDS011;7622;42.724;23.250;2023-02-28T08:31:43;45.37;;;22.00;;
15049;SDS011;7622;42.724;23.250;2023-02-28T08:34:11;40.63;;;22.80;;
15049;SDS011;7622;42.724;23.250;2023-02-28T08:36:39;45.90;;;23.27;;
15049;SDS011;7622;42.724;23.250;2023-02-28T08:39:06;46.63;;;22.77;;
15049;SDS011;7622;42.724;23.250;2023-02-28T08:41:35;44.63;;;23.33;;
15049;SDS011;7622;42.724;23.250;2023-02-28T08:44:02;39.70;;;21.70;;
15049;SDS011;7622;42.724;23.250;2023-02-28T08:46:29;47.93;;;22.43;;
15049;SDS011;7622;42.724;23.250;2023-02-28T08:48:56;41.37;;;21.93;;
15049;SDS011;7622;42.724;23.250;2023-02-28T08:51:25;48.77;;;23.93;;
15049;SDS011;7622;42.724;23.250;2023-02-28T08:53:53;42.77;;;22.60;;
15049;SDS011;7622;42.724;23.250;2023-02-28T08:56:20;45.93;;;23.03;;
15049;SDS011;7622;42.724;23.250;2023-02-28T08:58:49;44.57;;;22.43;;
15049;SDS011;7622;42.724;23.250;2023-02-28T09:01:17;40.13;;;23.30;;
15049;SDS011;7622;42.724;23.250;2023-02-28T09:03:49;47.27;;;25.80;;
15049;SDS011;7622;42.724;23.250;2023-02-28T09:06:19;50.03;;;24.67;;
15049;SDS011;7622;42.724;23.250;2023-02-28T09:08:47;42.30;;;22.90;;
15049;SDS011;7622;42.724;23.250;2023-02-28T09:11:14;49.13;;;24.03;;
15049;SDS011;7622;42.724;23.250;2023-02-28T09:13:41;46.03;;;23.03;;
15049;SDS011;7622;42.724;23.250;2023-02-28T09:16:10;46.20;;;23.47;;
15049;SDS011;7622;42.724;23.250;2023-02-28T09:18:39;41.63;;;22.50;;
15049;SDS011;7622;42.724;23.250;2023-02-28T09:21:07;50.93;;;25.47;;
15049;SDS011;7622;42.724;23.250;2023-02-28T09:23:35;48.60;;;23.63;;
15049;SDS011;7622;42.724;23.250;2023-02-28T09:26:03;44.27;;;24.00;;
15049;SDS011;7622;42.724;23.250;2023-02-28T09:28:31;48.70;;;26.10;;
15049;SDS011;7622;42.724;23.250;2023-02-28T09:30:58;43.97;;;25.23;;
15049;SDS011;7622;42.724;23.250;2023-02-28T09:33:26;53.20;;;25.40;;
15049;SDS011;7622;42.724;23.250;2023-02-28T09:35:57;47.97;;;24.63;;
15049;SDS011;7622;42.724;23.250;2023-02-28T09:38:25;59.70;;;27.37;;
15049;SDS011;7622;42.724;23.250;2023-02-28T09:40:53;51.27;;;27.10;;
15049;SDS011;7622;42.724;23.250;2023-02-28T09:43:23;47.33;;;26.10;;
15049;SDS011;7622;42.724;23.250;2023-02-28T09:45:54;49.13;;;27.23;;
15049;SDS011;7622;42.724;23.250;2023-02-28T09:48:27;45.60;;;25.33;;
15049;SDS011;7622;42.724;23.250;2023-02-28T09:51:00;46.17;;;24.20;;
15049;SDS011;7622;42.724;23.250;2023-02-28T09:53:31;42.53;;;23.63;;
15049;SDS011;7622;42.724;23.250;2023-02-28T09:56:01;46.77;;;24.27;;
15049;SDS011;7622;42.724;23.250;2023-02-28T09:58:33;39.60;;;23.27;;
15049;SDS011;7622;42.724;23.250;2023-02-28T10:01:06;36.90;;;22.10;;
15049;SDS011;7622;42.724;23.250;2023-02-28T10:03:40;42.13;;;21.83;;
15049;SDS011;7622;42.724;23.250;2023-02-28T10:06:14;39.77;;;21.20;;
15049;SDS011;7622;42.724;23.250;2023-02-28T10:08:46;39.87;;;22.00;;
15049;SDS011;7622;42.724;23.250;2023-02-28T10:11:19;38.23;;;22.33;;
15049;SDS011;7622;42.724;23.250;2023-02-28T10:13:52;43.63;;;22.83;;
15049;SDS011;7622;42.724;23.250;2023-02-28T10:16:27;40.03;;;22.60;;
15049;SDS011;7622;42.724;23.250;2023-02-28T10:18:59;35.93;;;20.33;;
15049;SDS011;7622;42.724;23.250;2023-02-28T10:21:32;36.70;;;21.63;;
15049;SDS011;7622;42.724;23.250;2023-02-28T10:24:03;41.57;;;22.43;;
15049;SDS011;7622;42.724;23.250;2023-02-28T10:26:38;37.77;;;20.50;;
15049;SDS011;7622;42.724;23.250;2023-02-28T10:29:09;38.43;;;22.37;;
15049;SDS011;7622;42.724;23.250;2023-02-28T10:31:37;40.00;;;21.50;;
15049;SDS011;7622;42.724;23.250;2023-02-28T10:34:07;51.37;;;22.43;;
15049;SDS011;7622;42.724;23.250;2023-02-28T10:36:34;43.30;;;22.00;;
15049;SDS011;7622;42.724;23.250;2023-02-28T10:39:00;44.10;;;21.37;;
15049;SDS011;7622;42.724;23.250;2023-02-28T10:41:28;33.60;;;20.47;;
15049;SDS011;7622;42.724;23.250;2023-02-28T10:44:12;34.23;;;18.77;;
15049;SDS011;7622;42.724;23.250;2023-02-28T10:46:41;28.87;;;16.97;;
15049;SDS011;7622;42.724;23.250;2023-02-28T10:49:13;26.33;;;10.93;;
15049;SDS011;7622;42.724;23.250;2023-02-28T10:51:43;22.37;;;12.73;;
15049;SDS011;7622;42.724;23.250;2023-02-28T10:54:18;29.30;;;11.03;;
15049;SDS011;7622;42.724;23.250;2023-02-28T10:59:34;20.93;;;11.53;;
15049;SDS011;7622;42.724;23.250;2023-02-28T11:02:01;20.20;;;10.53;;
15049;SDS011;7622;42.724;23.250;2023-02-28T11:04:36;22.77;;;12.17;;
15049;SDS011;7622;42.724;23.250;2023-02-28T11:07:06;19.77;;;11.00;;
15049;SDS011;7622;42.724;23.250;2023-02-28T11:09:44;26.73;;;12.50;;
15049;SDS011;7622;42.724;23.250;2023-02-28T11:12:19;26.77;;;12.90;;
15049;SDS011;7622;42.724;23.250;2023-02-28T11:14:49;27.33;;;12.93;;
15049;SDS011;7622;42.724;23.250;2023-02-28T11:17:19;29.30;;;11.57;;
15049;SDS011;7622;42.724;23.250;2023-02-28T11:19:50;21.93;;;11.70;;
15049;SDS011;7622;42.724;23.250;2023-02-28T11:22:20;19.10;;;11.10;;
15049;SDS011;7622;42.724;23.250;2023-02-28T11:24:54;26.83;;;11.43;;
15049;SDS011;7622;42.724;23.250;2023-02-28T11:27:39;23.73;;;10.93;;
15049;SDS011;7622;42.724;23.250;2023-02-28T11:35:51;24.57;;;10.80;;
15049;SDS011;7622;42.724;23.250;2023-02-28T11:38:20;21.93;;;12.07;;
15049;SDS011;7622;42.724;23.250;2023-02-28T11:40:48;22.67;;;11.73;;
15049;SDS011;7622;42.724;23.250;2023-02-28T11:43:30;21.97;;;11.80;;
15049;SDS011;7622;42.724;23.250;2023-02-28T11:46:14;25.90;;;12.93;;
15049;SDS011;7622;42.724;23.250;2023-02-28T11:48:49;32.93;;;13.40;;
15049;SDS011;7622;42.724;23.250;2023-02-28T11:51:24;22.97;;;11.73;;
15049;SDS011;7622;42.724;23.250;2023-02-28T11:54:05;23.60;;;10.70;;
15049;SDS011;7622;42.724;23.250;2023-02-28T11:56:47;26.47;;;12.63;;
15049;SDS011;7622;42.724;23.250;2023-02-28T12:02:20;27.23;;;13.37;;
15049;SDS011;7622;42.724;23.250;2023-02-28T12:04:58;22.33;;;11.20;;
15049;SDS011;7622;42.724;23.250;2023-02-28T12:07:49;20.87;;;12.03;;
15049;SDS011;7622;42.724;23.250;2023-02-28T12:10:24;26.13;;;11.93;;
15049;SDS011;7622;42.724;23.250;2023-02-28T12:12:58;28.57;;;10.50;;
15049;SDS011;7622;42.724;23.250;2023-02-28T12:15:47;21.80;;;9.73;;
15049;SDS011;7622;42.724;23.250;2023-02-28T12:18:28;36.83;;;11.03;;
15049;SDS011;7622;42.724;23.250;2023-02-28T12:21:09;20.87;;;10.07;;
15049;SDS011;7622;42.724;23.250;2023-02-28T12:23:50;18.87;;;10.67;;
15049;SDS011;7622;42.724;23.250;2023-02-28T12:26:28;22.00;;;10.43;;
15049;SDS011;7622;42.724;23.250;2023-02-28T12:29:02;23.87;;;10.97;;
15049;SDS011;7622;42.724;23.250;2023-02-28T12:31:35;26.43;;;11.03;;
15049;SDS011;7622;42.724;23.250;2023-02-28T12:34:06;24.43;;;11.90;;
15049;SDS011;7622;42.724;23.250;2023-02-28T12:36:38;28.80;;;10.77;;
15049;SDS011;7622;42.724;23.250;2023-02-28T12:39:10;24.73;;;9.80;;
15049;SDS011;7622;42.724;23.250;2023-02-28T12:41:42;29.13;;;10.30;;
15049;SDS011;7622;42.724;23.250;2023-02-28T12:44:14;23.83;;;10.57;;
15049;SDS011;7622;42.724;23.250;2023-02-28T12:46:46;22.53;;;10.60;;
15049;SDS011;7622;42.724;23.250;2023-02-28T12:49:16;26.27;;;9.40;;
15049;SDS011;7622;42.724;23.250;2023-02-28T12:51:47;19.30;;;9.27;;
15049;SDS011;7622;42.724;23.250;2023-02-28T12:54:19;24.43;;;11.80;;
15049;SDS011;7622;42.724;23.250;2023-02-28T12:56:53;12.37;;;7.90;;
15049;SDS011;7622;42.724;23.250;2023-02-28T12:59:25;18.67;;;9.90;;
15049;SDS011;7622;42.724;23.250;2023-02-28T13:05:01;21.23;;;8.27;;
15049;SDS011;7622;42.724;23.250;2023-02-28T13:07:52;27.47;;;11.57;;
15049;SDS011;7622;42.724;23.250;2023-02-28T13:10:44;30.23;;;9.77;;
15049;SDS011;7622;42.724;23.250;2023-02-28T13:13:16;30.13;;;10.40;;
15049;SDS011;7622;42.724;23.250;2023-02-28T13:15:56;24.00;;;10.07;;
15049;SDS011;7622;42.724;23.250;2023-02-28T13:18:33;20.90;;;8.93;;
15049;SDS011;7622;42.724;23.250;2023-02-28T13:21:04;16.47;;;8.33;;
15049;SDS011;7622;42.724;23.250;2023-02-28T13:29:49;23.43;;;10.13;;
15049;SDS011;7622;42.724;23.250;2023-02-28T13:38:15;15.97;;;7.67;;
15049;SDS011;7622;42.724;23.250;2023-02-28T13:44:00;25.60;;;11.07;;
15049;SDS011;7622;42.724;23.250;2023-02-28T13:46:29;23.87;;;10.20;;
15049;SDS011;7622;42.724;23.250;2023-02-28T13:49:14;25.40;;;11.13;;
15049;SDS011;7622;42.724;23.250;2023-02-28T13:51:45;24.00;;;10.70;;
15049;SDS011;7622;42.724;23.250;2023-02-28T13:54:18;22.97;;;9.53;;
15049;SDS011;7622;42.724;23.250;2023-02-28T13:57:04;24.77;;;10.23;;
15049;SDS011;7622;42.724;23.250;2023-02-28T13:59:49;20.07;;;9.33;;
15049;SDS011;7622;42.724;23.250;2023-02-28T14:02:32;22.13;;;9.60;;
15049;SDS011;7622;42.724;23.250;2023-02-28T14:05:12;23.83;;;10.37;;
15049;SDS011;7622;42.724;23.250;2023-02-28T14:07:42;21.50;;;9.23;;
15049;SDS011;7622;42.724;23.250;2023-02-28T14:10:20;21.30;;;9.40;;
15049;SDS011;7622;42.724;23.250;2023-02-28T14:12:57;19.13;;;8.77;;
15049;SDS011;7622;42.724;23.250;2023-02-28T14:15:43;22.73;;;10.13;;
15049;SDS011;7622;42.724;23.250;2023-02-28T14:18:22;17.67;;;8.83;;
15049;SDS011;7622;42.724;23.250;2023-02-28T14:20:53;14.77;;;8.93;;
15049;SDS011;7622;42.724;23.250;2023-02-28T14:23:40;22.70;;;9.37;;
15049;SDS011;7622;42.724;23.250;2023-02-28T14:26:30;15.57;;;8.77;;
15049;SDS011;7622;42.724;23.250;2023-02-28T14:29:16;13.93;;;8.90;;
15049;SDS011;7622;42.724;23.250;2023-02-28T14:32:01;25.43;;;9.93;;
15049;SDS011;7622;42.724;23.250;2023-02-28T14:34:36;20.80;;;9.40;;
15049;SDS011;7622;42.724;23.250;2023-02-28T14:37:10;21.57;;;9.80;;
15049;SDS011;7622;42.724;23.250;2023-02-28T14:39:41;19.27;;;10.17;;
15049;SDS011;7622;42.724;23.250;2023-02-28T14:44:54;12.03;;;7.00;;
15049;SDS011;7622;42.724;23.250;2023-02-28T14:47:23;15.17;;;9.40;;
15049;SDS011;7622;42.724;23.250;2023-02-28T14:49:54;15.07;;;8.53;;
15049;SDS011;7622;42.724;23.250;2023-02-28T14:52:21;24.23;;;9.73;;
15049;SDS011;7622;42.724;23.250;2023-02-28T14:54:51;24.73;;;9.17;;
15049;SDS011;7622;42.724;23.250;2023-02-28T14:57:21;13.67;;;8.30;;
15049;SDS011;7622;42.724;23.250;2023-02-28T14:59:56;17.63;;;8.37;;
15049;SDS011;7622;42.724;23.250;2023-02-28T15:02:26;22.70;;;9.77;;
15049;SDS011;7622;42.724;23.250;2023-02-28T15:04:56;17.47;;;9.47;;
15049;SDS011;7622;42.724;23.250;2023-02-28T15:07:25;16.43;;;9.30;;
15049;SDS011;7622;42.724;23.250;2023-02-28T15:10:13;18.70;;;9.93;;
15049;SDS011;7622;42.724;23.250;2023-02-28T15:12:45;17.47;;;9.43;;
15049;SDS011;7622;42.724;23.250;2023-02-28T15:15:17;23.63;;;8.47;;
15049;SDS011;7622;42.724;23.250;2023-02-28T15:17:48;15.23;;;9.10;;
15049;SDS011;7622;42.724;23.250;2023-02-28T15:20:18;21.17;;;10.07;;
15049;SDS011;7622;42.724;23.250;2023-02-28T15:22:46;19.87;;;10.63;;